sensor_id;sensor_type;location;lat;lon;timestamp;P1;durP1;ratioP1;P2;durP2;ratioP2
70825;SDS011;58446;41.490;22.098;2023-09-18T00:00:50;13.63;;;7.90;;
70825;SDS011;58446;41.490;22.098;2023-09-18T00:03:17;12.32;;;8.90;;
70825;SDS011;58446;41.490;22.098;2023-09-18T00:05:45;13.03;;;7.13;;
70825;SDS011;58446;41.490;22.098;2023-09-18T00:08:11;14.68;;;7.93;;
70825;SDS011;58446;41.490;22.098;2023-09-18T00:10:36;12.77;;;8.32;;
70825;SDS011;58446;41.490;22.098;2023-09-18T00:13:02;12.37;;;7.70;;
70825;SDS011;58446;41.490;22.098;2023-09-18T00:15:28;12.63;;;7.90;;
70825;SDS011;58446;41.490;22.098;2023-09-18T00:17:56;14.27;;;7.75;;
70825;SDS011;58446;41.490;22.098;2023-09-18T00:20:21;14.03;;;8.07;;
70825;SDS011;58446;41.490;22.098;2023-09-18T00:22:55;14.23;;;8.43;;
70825;SDS011;58446;41.490;22.098;2023-09-18T00:25:21;13.57;;;8.10;;
70825;SDS011;58446;41.490;22.098;2023-09-18T00:27:47;16.05;;;8.93;;
70825;SDS011;58446;41.490;22.098;2023-09-18T00:30:14;11.73;;;7.47;;
70825;SDS011;58446;41.490;22.098;2023-09-18T00:32:39;13.25;;;7.85;;
70825;SDS011;58446;41.490;22.098;2023-09-18T00:35:05;15.18;;;8.05;;
70825;SDS011;58446;41.490;22.098;2023-09-18T00:37:31;13.40;;;7.83;;
70825;SDS011;58446;41.490;22.098;2023-09-18T00:39:57;14.05;;;7.63;;
70825;SDS011;58446;41.490;22.098;2023-09-18T00:42:23;12.77;;;7.93;;
70825;SDS011;58446;41.490;22.098;2023-09-18T00:44:49;15.23;;;9.40;;
70825;SDS011;58446;41.490;22.098;2023-09-18T00:47:18;14.35;;;8.48;;
70825;SDS011;58446;41.490;22.098;2023-09-18T00:49:45;12.50;;;8.40;;
70825;SDS011;58446;41.490;22.098;2023-09-18T00:52:14;11.40;;;8.13;;
70825;SDS011;58446;41.490;22.098;2023-09-18T00:54:40;12.68;;;8.25;;
70825;SDS011;58446;41.490;22.098;2023-09-18T00:57:08;12.17;;;8.00;;
70825;SDS011;58446;41.490;22.098;2023-09-18T00:59:35;13.43;;;8.10;;
70825;SDS011;58446;41.490;22.098;2023-09-18T01:02:05;13.95;;;8.73;;
70825;SDS011;58446;41.490;22.098;2023-09-18T01:04:32;15.27;;;8.20;;
70825;SDS011;58446;41.490;22.098;2023-09-18T01:06:59;13.48;;;8.57;;
70825;SDS011;58446;41.490;22.098;2023-09-18T01:09:29;13.67;;;7.90;;
70825;SDS011;58446;41.490;22.098;2023-09-18T01:14:34;13.80;;;8.20;;
70825;SDS011;58446;41.490;22.098;2023-09-18T01:17:21;11.93;;;8.40;;
70825;SDS011;58446;41.490;22.098;2023-09-18T01:19:47;13.07;;;8.05;;
70825;SDS011;58446;41.490;22.098;2023-09-18T01:22:14;15.23;;;9.20;;
70825;SDS011;58446;41.490;22.098;2023-09-18T01:24:44;13.07;;;8.18;;
70825;SDS011;58446;41.490;22.098;2023-09-18T01:27:14;13.77;;;8.95;;
70825;SDS011;58446;41.490;22.098;2023-09-18T01:29:45;13.70;;;8.43;;
70825;SDS011;58446;41.490;22.098;2023-09-18T01:32:11;16.25;;;8.98;;
70825;SDS011;58446;41.490;22.098;2023-09-18T01:34:38;15.90;;;8.97;;
70825;SDS011;58446;41.490;22.098;2023-09-18T01:37:09;14.60;;;8.43;;
70825;SDS011;58446;41.490;22.098;2023-09-18T01:39:35;14.13;;;9.32;;
70825;SDS011;58446;41.490;22.098;2023-09-18T01:42:02;13.10;;;8.40;;
70825;SDS011;58446;41.490;22.098;2023-09-18T01:44:30;13.13;;;8.88;;
70825;SDS011;58446;41.490;22.098;2023-09-18T01:47:01;13.45;;;8.43;;
70825;SDS011;58446;41.490;22.098;2023-09-18T01:49:29;14.43;;;8.32;;
70825;SDS011;58446;41.490;22.098;2023-09-18T01:51:56;14.07;;;8.80;;
70825;SDS011;58446;41.490;22.098;2023-09-18T01:54:22;15.82;;;8.88;;
70825;SDS011;58446;41.490;22.098;2023-09-18T01:56:48;17.67;;;9.55;;
70825;SDS011;58446;41.490;22.098;2023-09-18T01:59:14;13.88;;;9.60;;
70825;SDS011;58446;41.490;22.098;2023-09-18T02:01:39;13.47;;;8.30;;
70825;SDS011;58446;41.490;22.098;2023-09-18T02:04:05;13.53;;;8.97;;
70825;SDS011;58446;41.490;22.098;2023-09-18T02:06:32;15.25;;;8.60;;
70825;SDS011;58446;41.490;22.098;2023-09-18T02:08:58;14.38;;;9.45;;
70825;SDS011;58446;41.490;22.098;2023-09-18T02:11:23;15.30;;;9.37;;
70825;SDS011;58446;41.490;22.098;2023-09-18T02:13:49;12.07;;;8.75;;
70825;SDS011;58446;41.490;22.098;2023-09-18T02:16:15;10.60;;;8.03;;
70825;SDS011;58446;41.490;22.098;2023-09-18T02:18:41;12.53;;;8.57;;
70825;SDS011;58446;41.490;22.098;2023-09-18T02:21:06;17.80;;;9.07;;
70825;SDS011;58446;41.490;22.098;2023-09-18T02:23:32;13.35;;;8.85;;
70825;SDS011;58446;41.490;22.098;2023-09-18T02:25:58;15.40;;;9.57;;
70825;SDS011;58446;41.490;22.098;2023-09-18T02:28:24;14.45;;;8.75;;
70825;SDS011;58446;41.490;22.098;2023-09-18T02:30:51;13.98;;;8.30;;
70825;SDS011;58446;41.490;22.098;2023-09-18T02:33:16;17.90;;;9.50;;
70825;SDS011;58446;41.490;22.098;2023-09-18T02:35:42;16.87;;;8.90;;
70825;SDS011;58446;41.490;22.098;2023-09-18T02:38:10;13.57;;;8.30;;
70825;SDS011;58446;41.490;22.098;2023-09-18T02:40:36;13.73;;;8.27;;
70825;SDS011;58446;41.490;22.098;2023-09-18T02:43:02;13.82;;;8.75;;
70825;SDS011;58446;41.490;22.098;2023-09-18T02:45:28;15.70;;;9.20;;
70825;SDS011;58446;41.490;22.098;2023-09-18T02:47:53;12.27;;;8.40;;
70825;SDS011;58446;41.490;22.098;2023-09-18T02:50:19;13.50;;;9.10;;
70825;SDS011;58446;41.490;22.098;2023-09-18T02:52:45;15.55;;;8.55;;
70825;SDS011;58446;41.490;22.098;2023-09-18T02:55:10;14.10;;;8.87;;
70825;SDS011;58446;41.490;22.098;2023-09-18T02:57:38;14.43;;;8.95;;
70825;SDS011;58446;41.490;22.098;2023-09-18T03:00:04;13.63;;;8.63;;
70825;SDS011;58446;41.490;22.098;2023-09-18T03:02:30;12.23;;;8.40;;
70825;SDS011;58446;41.490;22.098;2023-09-18T03:04:56;15.23;;;8.68;;
70825;SDS011;58446;41.490;22.098;2023-09-18T03:07:22;14.47;;;7.10;;
70825;SDS011;58446;41.490;22.098;2023-09-18T03:09:47;14.23;;;7.95;;
70825;SDS011;58446;41.490;22.098;2023-09-18T03:12:13;16.53;;;8.77;;
70825;SDS011;58446;41.490;22.098;2023-09-18T03:14:39;11.97;;;7.60;;
70825;SDS011;58446;41.490;22.098;2023-09-18T03:17:04;12.40;;;8.05;;
70825;SDS011;58446;41.490;22.098;2023-09-18T03:19:31;15.37;;;8.30;;
70825;SDS011;58446;41.490;22.098;2023-09-18T03:21:59;13.07;;;8.43;;
70825;SDS011;58446;41.490;22.098;2023-09-18T03:24:24;14.20;;;8.50;;
70825;SDS011;58446;41.490;22.098;2023-09-18T03:26:51;12.63;;;7.80;;
70825;SDS011;58446;41.490;22.098;2023-09-18T03:29:16;14.75;;;8.95;;
70825;SDS011;58446;41.490;22.098;2023-09-18T03:31:42;14.55;;;9.02;;
70825;SDS011;58446;41.490;22.098;2023-09-18T03:34:08;13.13;;;8.80;;
70825;SDS011;58446;41.490;22.098;2023-09-18T03:36:34;14.63;;;11.23;;
70825;SDS011;58446;41.490;22.098;2023-09-18T03:39:01;17.40;;;12.77;;
70825;SDS011;58446;41.490;22.098;2023-09-18T03:41:27;21.27;;;15.67;;
70825;SDS011;58446;41.490;22.098;2023-09-18T03:43:52;20.60;;;14.50;;
70825;SDS011;58446;41.490;22.098;2023-09-18T03:46:18;18.33;;;12.77;;
70825;SDS011;58446;41.490;22.098;2023-09-18T03:48:44;14.63;;;9.57;;
70825;SDS011;58446;41.490;22.098;2023-09-18T03:51:11;13.87;;;9.27;;
70825;SDS011;58446;41.490;22.098;2023-09-18T03:53:40;18.38;;;9.18;;
70825;SDS011;58446;41.490;22.098;2023-09-18T03:56:06;14.38;;;10.25;;
70825;SDS011;58446;41.490;22.098;2023-09-18T03:58:32;13.90;;;9.47;;
70825;SDS011;58446;41.490;22.098;2023-09-18T04:00:57;15.30;;;9.70;;
70825;SDS011;58446;41.490;22.098;2023-09-18T04:03:23;13.37;;;8.87;;
70825;SDS011;58446;41.490;22.098;2023-09-18T04:05:49;14.50;;;9.37;;
70825;SDS011;58446;41.490;22.098;2023-09-18T04:08:14;12.93;;;8.73;;
70825;SDS011;58446;41.490;22.098;2023-09-18T04:10:40;14.77;;;9.43;;
70825;SDS011;58446;41.490;22.098;2023-09-18T04:13:06;16.95;;;9.48;;
70825;SDS011;58446;41.490;22.098;2023-09-18T04:15:31;14.23;;;9.50;;
70825;SDS011;58446;41.490;22.098;2023-09-18T04:17:57;16.25;;;9.15;;
70825;SDS011;58446;41.490;22.098;2023-09-18T04:20:23;15.93;;;9.33;;
70825;SDS011;58446;41.490;22.098;2023-09-18T04:23:16;13.50;;;8.70;;
70825;SDS011;58446;41.490;22.098;2023-09-18T04:25:45;13.88;;;9.05;;
70825;SDS011;58446;41.490;22.098;2023-09-18T04:28:12;14.00;;;9.38;;
70825;SDS011;58446;41.490;22.098;2023-09-18T04:30:38;13.67;;;8.87;;
70825;SDS011;58446;41.490;22.098;2023-09-18T04:33:04;13.82;;;8.82;;
70825;SDS011;58446;41.490;22.098;2023-09-18T04:35:30;14.93;;;9.50;;
70825;SDS011;58446;41.490;22.098;2023-09-18T04:37:58;15.80;;;9.80;;
70825;SDS011;58446;41.490;22.098;2023-09-18T04:40:24;15.48;;;9.75;;
70825;SDS011;58446;41.490;22.098;2023-09-18T04:42:51;15.68;;;8.90;;
70825;SDS011;58446;41.490;22.098;2023-09-18T04:45:18;16.10;;;8.68;;
70825;SDS011;58446;41.490;22.098;2023-09-18T04:47:43;13.37;;;8.70;;
70825;SDS011;58446;41.490;22.098;2023-09-18T04:50:09;13.20;;;8.68;;
70825;SDS011;58446;41.490;22.098;2023-09-18T04:52:35;14.57;;;9.25;;
70825;SDS011;58446;41.490;22.098;2023-09-18T04:55:01;14.13;;;8.57;;
70825;SDS011;58446;41.490;22.098;2023-09-18T04:57:28;13.27;;;8.38;;
70825;SDS011;58446;41.490;22.098;2023-09-18T04:59:54;12.43;;;9.40;;
70825;SDS011;58446;41.490;22.098;2023-09-18T05:02:19;15.90;;;9.13;;
70825;SDS011;58446;41.490;22.098;2023-09-18T05:04:45;14.13;;;8.27;;
70825;SDS011;58446;41.490;22.098;2023-09-18T05:07:10;14.37;;;8.07;;
70825;SDS011;58446;41.490;22.098;2023-09-18T05:09:36;15.13;;;9.80;;
70825;SDS011;58446;41.490;22.098;2023-09-18T05:12:04;15.03;;;9.40;;
70825;SDS011;58446;41.490;22.098;2023-09-18T05:14:30;15.48;;;9.77;;
70825;SDS011;58446;41.490;22.098;2023-09-18T05:16:55;16.92;;;10.23;;
70825;SDS011;58446;41.490;22.098;2023-09-18T05:19:21;16.63;;;9.77;;
70825;SDS011;58446;41.490;22.098;2023-09-18T05:21:47;15.35;;;9.48;;
70825;SDS011;58446;41.490;22.098;2023-09-18T05:24:13;16.13;;;9.67;;
70825;SDS011;58446;41.490;22.098;2023-09-18T05:26:38;15.20;;;10.23;;
70825;SDS011;58446;41.490;22.098;2023-09-18T05:29:04;18.73;;;10.90;;
70825;SDS011;58446;41.490;22.098;2023-09-18T05:31:30;17.38;;;10.52;;
70825;SDS011;58446;41.490;22.098;2023-09-18T05:33:55;14.23;;;10.50;;
70825;SDS011;58446;41.490;22.098;2023-09-18T05:36:21;19.43;;;10.03;;
70825;SDS011;58446;41.490;22.098;2023-09-18T05:38:47;13.52;;;8.82;;
70825;SDS011;58446;41.490;22.098;2023-09-18T05:41:12;17.07;;;10.60;;
70825;SDS011;58446;41.490;22.098;2023-09-18T05:43:38;17.92;;;9.73;;
70825;SDS011;58446;41.490;22.098;2023-09-18T05:46:04;15.67;;;9.53;;
70825;SDS011;58446;41.490;22.098;2023-09-18T05:48:29;14.98;;;10.35;;
70825;SDS011;58446;41.490;22.098;2023-09-18T05:50:56;14.73;;;9.85;;
70825;SDS011;58446;41.490;22.098;2023-09-18T05:53:22;14.33;;;9.20;;
70825;SDS011;58446;41.490;22.098;2023-09-18T05:55:47;13.32;;;9.52;;
70825;SDS011;58446;41.490;22.098;2023-09-18T05:58:13;14.93;;;9.57;;
70825;SDS011;58446;41.490;22.098;2023-09-18T06:00:39;14.23;;;9.38;;
70825;SDS011;58446;41.490;22.098;2023-09-18T06:03:05;15.63;;;9.10;;
70825;SDS011;58446;41.490;22.098;2023-09-18T06:05:31;13.90;;;8.77;;
70825;SDS011;58446;41.490;22.098;2023-09-18T06:07:59;15.40;;;9.50;;
70825;SDS011;58446;41.490;22.098;2023-09-18T06:10:25;13.57;;;8.18;;
70825;SDS011;58446;41.490;22.098;2023-09-18T06:12:50;14.53;;;9.13;;
70825;SDS011;58446;41.490;22.098;2023-09-18T06:15:16;14.38;;;8.00;;
70825;SDS011;58446;41.490;22.098;2023-09-18T06:17:43;15.83;;;9.27;;
70825;SDS011;58446;41.490;22.098;2023-09-18T06:20:09;11.65;;;7.72;;
70825;SDS011;58446;41.490;22.098;2023-09-18T06:22:38;17.40;;;9.32;;
70825;SDS011;58446;41.490;22.098;2023-09-18T06:25:05;13.75;;;8.48;;
70825;SDS011;58446;41.490;22.098;2023-09-18T06:27:34;12.63;;;7.90;;
70825;SDS011;58446;41.490;22.098;2023-09-18T06:30:02;12.93;;;8.73;;
70825;SDS011;58446;41.490;22.098;2023-09-18T06:32:28;14.40;;;8.23;;
70825;SDS011;58446;41.490;22.098;2023-09-18T06:34:54;14.38;;;8.95;;
70825;SDS011;58446;41.490;22.098;2023-09-18T06:37:23;14.63;;;8.35;;
70825;SDS011;58446;41.490;22.098;2023-09-18T06:39:49;14.23;;;8.68;;
70825;SDS011;58446;41.490;22.098;2023-09-18T06:42:15;12.23;;;8.17;;
70825;SDS011;58446;41.490;22.098;2023-09-18T06:44:40;15.77;;;8.85;;
70825;SDS011;58446;41.490;22.098;2023-09-18T06:47:06;11.03;;;7.80;;
70825;SDS011;58446;41.490;22.098;2023-09-18T06:49:32;13.90;;;8.77;;
70825;SDS011;58446;41.490;22.098;2023-09-18T06:51:58;17.23;;;10.33;;
70825;SDS011;58446;41.490;22.098;2023-09-18T06:54:23;15.35;;;10.35;;
70825;SDS011;58446;41.490;22.098;2023-09-18T06:56:49;17.70;;;11.27;;
70825;SDS011;58446;41.490;22.098;2023-09-18T06:59:15;17.27;;;10.60;;
70825;SDS011;58446;41.490;22.098;2023-09-18T07:01:41;14.95;;;9.27;;
70825;SDS011;58446;41.490;22.098;2023-09-18T07:04:07;17.85;;;10.40;;
70825;SDS011;58446;41.490;22.098;2023-09-18T07:06:33;14.30;;;9.70;;
70825;SDS011;58446;41.490;22.098;2023-09-18T07:08:59;16.90;;;9.98;;
70825;SDS011;58446;41.490;22.098;2023-09-18T07:11:25;16.63;;;11.20;;
70825;SDS011;58446;41.490;22.098;2023-09-18T07:13:50;15.93;;;10.55;;
70825;SDS011;58446;41.490;22.098;2023-09-18T07:16:16;15.93;;;10.47;;
70825;SDS011;58446;41.490;22.098;2023-09-18T07:18:42;15.48;;;9.95;;
70825;SDS011;58446;41.490;22.098;2023-09-18T07:21:08;17.75;;;10.55;;
70825;SDS011;58446;41.490;22.098;2023-09-18T07:23:34;15.43;;;10.97;;
70825;SDS011;58446;41.490;22.098;2023-09-18T07:26:03;15.83;;;10.27;;
70825;SDS011;58446;41.490;22.098;2023-09-18T07:28:28;16.13;;;10.65;;
70825;SDS011;58446;41.490;22.098;2023-09-18T07:30:54;17.85;;;10.50;;
70825;SDS011;58446;41.490;22.098;2023-09-18T07:33:20;15.13;;;10.23;;
70825;SDS011;58446;41.490;22.098;2023-09-18T07:35:46;18.33;;;10.40;;
70825;SDS011;58446;41.490;22.098;2023-09-18T07:38:13;14.87;;;10.20;;
70825;SDS011;58446;41.490;22.098;2023-09-18T07:40:39;15.50;;;10.32;;
70825;SDS011;58446;41.490;22.098;2023-09-18T07:43:05;16.50;;;10.43;;
70825;SDS011;58446;41.490;22.098;2023-09-18T07:45:30;19.20;;;10.97;;
70825;SDS011;58446;41.490;22.098;2023-09-18T07:47:56;17.25;;;10.50;;
70825;SDS011;58446;41.490;22.098;2023-09-18T07:50:22;16.70;;;10.90;;
70825;SDS011;58446;41.490;22.098;2023-09-18T07:52:47;15.57;;;10.10;;
70825;SDS011;58446;41.490;22.098;2023-09-18T07:55:13;14.27;;;8.57;;
70825;SDS011;58446;41.490;22.098;2023-09-18T07:57:39;14.85;;;8.80;;
70825;SDS011;58446;41.490;22.098;2023-09-18T08:00:05;16.38;;;9.73;;
70825;SDS011;58446;41.490;22.098;2023-09-18T08:02:37;15.23;;;8.67;;
70825;SDS011;58446;41.490;22.098;2023-09-18T08:05:07;14.30;;;9.70;;
70825;SDS011;58446;41.490;22.098;2023-09-18T08:07:34;15.10;;;9.45;;
70825;SDS011;58446;41.490;22.098;2023-09-18T08:10:02;14.88;;;9.15;;
70825;SDS011;58446;41.490;22.098;2023-09-18T08:12:31;14.50;;;9.10;;
70825;SDS011;58446;41.490;22.098;2023-09-18T08:14:57;16.67;;;10.00;;
70825;SDS011;58446;41.490;22.098;2023-09-18T08:17:24;13.95;;;9.30;;
70825;SDS011;58446;41.490;22.098;2023-09-18T08:19:51;15.95;;;10.30;;
70825;SDS011;58446;41.490;22.098;2023-09-18T08:22:18;16.13;;;9.85;;
70825;SDS011;58446;41.490;22.098;2023-09-18T08:24:45;15.18;;;9.02;;
70825;SDS011;58446;41.490;22.098;2023-09-18T08:27:14;13.30;;;8.57;;
70825;SDS011;58446;41.490;22.098;2023-09-18T08:29:43;14.43;;;8.75;;
70825;SDS011;58446;41.490;22.098;2023-09-18T08:32:09;14.55;;;9.80;;
70825;SDS011;58446;41.490;22.098;2023-09-18T08:34:35;15.10;;;9.98;;
70825;SDS011;58446;41.490;22.098;2023-09-18T08:37:01;14.63;;;8.53;;
70825;SDS011;58446;41.490;22.098;2023-09-18T08:39:27;12.57;;;8.75;;
70825;SDS011;58446;41.490;22.098;2023-09-18T08:41:57;17.75;;;10.43;;
70825;SDS011;58446;41.490;22.098;2023-09-18T08:44:26;13.70;;;8.83;;
70825;SDS011;58446;41.490;22.098;2023-09-18T08:46:53;14.75;;;8.93;;
70825;SDS011;58446;41.490;22.098;2023-09-18T08:49:20;16.65;;;9.30;;
70825;SDS011;58446;41.490;22.098;2023-09-18T08:51:48;15.55;;;9.07;;
70825;SDS011;58446;41.490;22.098;2023-09-18T08:54:16;13.32;;;8.40;;
70825;SDS011;58446;41.490;22.098;2023-09-18T08:56:42;14.07;;;8.67;;
70825;SDS011;58446;41.490;22.098;2023-09-18T08:59:07;13.80;;;8.27;;
70825;SDS011;58446;41.490;22.098;2023-09-18T09:01:33;15.93;;;8.93;;
70825;SDS011;58446;41.490;22.098;2023-09-18T09:03:58;14.48;;;8.48;;
70825;SDS011;58446;41.490;22.098;2023-09-18T09:06:25;13.75;;;8.30;;
70825;SDS011;58446;41.490;22.098;2023-09-18T09:08:51;17.17;;;8.63;;
70825;SDS011;58446;41.490;22.098;2023-09-18T09:11:17;13.50;;;8.02;;
70825;SDS011;58446;41.490;22.098;2023-09-18T09:13:44;13.87;;;8.33;;
70825;SDS011;58446;41.490;22.098;2023-09-18T09:16:10;12.43;;;8.27;;
70825;SDS011;58446;41.490;22.098;2023-09-18T09:18:46;13.52;;;8.13;;
70825;SDS011;58446;41.490;22.098;2023-09-18T09:21:14;15.07;;;9.02;;
70825;SDS011;58446;41.490;22.098;2023-09-18T09:23:47;12.83;;;8.20;;
70825;SDS011;58446;41.490;22.098;2023-09-18T09:26:17;14.18;;;7.60;;
70825;SDS011;58446;41.490;22.098;2023-09-18T09:28:44;12.60;;;7.65;;
70825;SDS011;58446;41.490;22.098;2023-09-18T09:31:10;13.90;;;7.55;;
70825;SDS011;58446;41.490;22.098;2023-09-18T09:33:37;12.60;;;6.90;;
70825;SDS011;58446;41.490;22.098;2023-09-18T09:36:06;11.45;;;7.18;;
70825;SDS011;58446;41.490;22.098;2023-09-18T09:38:32;12.52;;;7.32;;
70825;SDS011;58446;41.490;22.098;2023-09-18T09:41:02;12.38;;;7.28;;
70825;SDS011;58446;41.490;22.098;2023-09-18T09:43:32;12.30;;;7.40;;
70825;SDS011;58446;41.490;22.098;2023-09-18T09:46:01;13.27;;;6.80;;
70825;SDS011;58446;41.490;22.098;2023-09-18T09:48:27;12.45;;;7.20;;
70825;SDS011;58446;41.490;22.098;2023-09-18T09:50:58;14.30;;;6.78;;
70825;SDS011;58446;41.490;22.098;2023-09-18T09:53:44;14.18;;;7.22;;
70825;SDS011;58446;41.490;22.098;2023-09-18T09:56:16;11.90;;;7.13;;
70825;SDS011;58446;41.490;22.098;2023-09-18T10:01:46;15.32;;;6.57;;
70825;SDS011;58446;41.490;22.098;2023-09-18T10:04:15;11.40;;;6.70;;
70825;SDS011;58446;41.490;22.098;2023-09-18T10:06:47;12.02;;;5.72;;
70825;SDS011;58446;41.490;22.098;2023-09-18T10:09:23;12.32;;;6.68;;
70825;SDS011;58446;41.490;22.098;2023-09-18T10:11:54;11.27;;;6.80;;
70825;SDS011;58446;41.490;22.098;2023-09-18T10:14:32;13.23;;;6.57;;
70825;SDS011;58446;41.490;22.098;2023-09-18T10:17:16;13.27;;;7.32;;
70825;SDS011;58446;41.490;22.098;2023-09-18T10:19:45;11.65;;;6.50;;
70825;SDS011;58446;41.490;22.098;2023-09-18T10:22:33;11.63;;;7.55;;
70825;SDS011;58446;41.490;22.098;2023-09-18T10:25:29;13.50;;;6.57;;
70825;SDS011;58446;41.490;22.098;2023-09-18T10:27:56;12.00;;;6.30;;
70825;SDS011;58446;41.490;22.098;2023-09-18T10:30:23;12.57;;;6.38;;
70825;SDS011;58446;41.490;22.098;2023-09-18T10:32:52;10.98;;;5.97;;
70825;SDS011;58446;41.490;22.098;2023-09-18T10:35:18;10.75;;;6.35;;
70825;SDS011;58446;41.490;22.098;2023-09-18T10:37:46;12.17;;;6.73;;
70825;SDS011;58446;41.490;22.098;2023-09-18T10:40:13;14.38;;;7.13;;
70825;SDS011;58446;41.490;22.098;2023-09-18T10:42:39;12.05;;;6.97;;
70825;SDS011;58446;41.490;22.098;2023-09-18T10:45:10;19.00;;;7.13;;
70825;SDS011;58446;41.490;22.098;2023-09-18T10:47:37;14.40;;;7.10;;
70825;SDS011;58446;41.490;22.098;2023-09-18T10:50:05;11.27;;;7.65;;
70825;SDS011;58446;41.490;22.098;2023-09-18T10:52:32;12.68;;;6.70;;
70825;SDS011;58446;41.490;22.098;2023-09-18T10:55:00;10.75;;;7.00;;
70825;SDS011;58446;41.490;22.098;2023-09-18T10:57:32;11.47;;;6.60;;
70825;SDS011;58446;41.490;22.098;2023-09-18T11:00:02;10.63;;;6.43;;
70825;SDS011;58446;41.490;22.098;2023-09-18T11:02:39;13.85;;;6.47;;
70825;SDS011;58446;41.490;22.098;2023-09-18T11:05:06;11.93;;;6.85;;
70825;SDS011;58446;41.490;22.098;2023-09-18T11:07:31;11.10;;;7.23;;
70825;SDS011;58446;41.490;22.098;2023-09-18T11:09:57;11.25;;;6.35;;
70825;SDS011;58446;41.490;22.098;2023-09-18T11:12:41;12.47;;;6.50;;
70825;SDS011;58446;41.490;22.098;2023-09-18T11:15:09;12.32;;;6.28;;
70825;SDS011;58446;41.490;22.098;2023-09-18T11:17:58;10.90;;;6.60;;
70825;SDS011;58446;41.490;22.098;2023-09-18T11:20:25;12.27;;;6.68;;
70825;SDS011;58446;41.490;22.098;2023-09-18T11:22:58;13.93;;;7.32;;
70825;SDS011;58446;41.490;22.098;2023-09-18T11:25:39;12.67;;;6.53;;
70825;SDS011;58446;41.490;22.098;2023-09-18T11:28:22;10.23;;;6.35;;
70825;SDS011;58446;41.490;22.098;2023-09-18T11:30:52;11.07;;;6.68;;
70825;SDS011;58446;41.490;22.098;2023-09-18T11:33:33;11.43;;;6.68;;
70825;SDS011;58446;41.490;22.098;2023-09-18T11:36:04;12.50;;;6.25;;
70825;SDS011;58446;41.490;22.098;2023-09-18T11:38:52;11.40;;;6.20;;
70825;SDS011;58446;41.490;22.098;2023-09-18T11:41:20;10.30;;;6.13;;
70825;SDS011;58446;41.490;22.098;2023-09-18T11:43:47;13.88;;;6.70;;
70825;SDS011;58446;41.490;22.098;2023-09-18T11:46:17;10.37;;;5.73;;
70825;SDS011;58446;41.490;22.098;2023-09-18T11:48:43;10.00;;;6.13;;
70825;SDS011;58446;41.490;22.098;2023-09-18T11:51:12;9.45;;;6.28;;
70825;SDS011;58446;41.490;22.098;2023-09-18T11:53:39;11.40;;;6.07;;
70825;SDS011;58446;41.490;22.098;2023-09-18T11:56:10;11.15;;;6.53;;
70825;SDS011;58446;41.490;22.098;2023-09-18T11:58:46;11.30;;;5.80;;
70825;SDS011;58446;41.490;22.098;2023-09-18T12:01:12;12.07;;;5.68;;
70825;SDS011;58446;41.490;22.098;2023-09-18T12:03:40;10.85;;;6.57;;
70825;SDS011;58446;41.490;22.098;2023-09-18T12:06:06;12.55;;;6.57;;
70825;SDS011;58446;41.490;22.098;2023-09-18T12:08:34;12.65;;;6.60;;
70825;SDS011;58446;41.490;22.098;2023-09-18T12:11:04;13.93;;;6.50;;
70825;SDS011;58446;41.490;22.098;2023-09-18T12:13:31;13.50;;;6.57;;
70825;SDS011;58446;41.490;22.098;2023-09-18T12:15:57;10.70;;;5.75;;
70825;SDS011;58446;41.490;22.098;2023-09-18T12:18:24;10.00;;;6.32;;
70825;SDS011;58446;41.490;22.098;2023-09-18T12:20:50;11.37;;;6.50;;
70825;SDS011;58446;41.490;22.098;2023-09-18T12:23:16;11.43;;;6.05;;
70825;SDS011;58446;41.490;22.098;2023-09-18T12:25:46;11.07;;;6.95;;
70825;SDS011;58446;41.490;22.098;2023-09-18T12:28:14;13.98;;;6.18;;
70825;SDS011;58446;41.490;22.098;2023-09-18T12:30:42;11.50;;;5.75;;
70825;SDS011;58446;41.490;22.098;2023-09-18T12:33:08;9.90;;;6.00;;
70825;SDS011;58446;41.490;22.098;2023-09-18T12:35:34;10.52;;;5.65;;
70825;SDS011;58446;41.490;22.098;2023-09-18T12:38:00;11.40;;;6.60;;
70825;SDS011;58446;41.490;22.098;2023-09-18T12:40:26;11.90;;;6.57;;
70825;SDS011;58446;41.490;22.098;2023-09-18T12:42:54;9.55;;;5.90;;
70825;SDS011;58446;41.490;22.098;2023-09-18T12:45:22;10.55;;;5.90;;
70825;SDS011;58446;41.490;22.098;2023-09-18T12:47:49;12.70;;;6.03;;
70825;SDS011;58446;41.490;22.098;2023-09-18T12:50:16;9.25;;;6.53;;
70825;SDS011;58446;41.490;22.098;2023-09-18T12:52:41;10.40;;;6.10;;
70825;SDS011;58446;41.490;22.098;2023-09-18T12:55:07;13.15;;;6.60;;
70825;SDS011;58446;41.490;22.098;2023-09-18T12:57:34;9.03;;;5.80;;
70825;SDS011;58446;41.490;22.098;2023-09-18T12:59:59;12.00;;;5.93;;
70825;SDS011;58446;41.490;22.098;2023-09-18T13:02:36;11.48;;;5.70;;
70825;SDS011;58446;41.490;22.098;2023-09-18T13:05:03;11.77;;;6.40;;
70825;SDS011;58446;41.490;22.098;2023-09-18T13:07:29;11.43;;;6.23;;
70825;SDS011;58446;41.490;22.098;2023-09-18T13:10:02;17.00;;;6.27;;
70825;SDS011;58446;41.490;22.098;2023-09-18T13:12:40;8.55;;;5.15;;
70825;SDS011;58446;41.490;22.098;2023-09-18T13:15:11;10.30;;;5.82;;
70825;SDS011;58446;41.490;22.098;2023-09-18T13:17:43;12.38;;;6.63;;
70825;SDS011;58446;41.490;22.098;2023-09-18T13:22:38;12.57;;;6.97;;
70825;SDS011;58446;41.490;22.098;2023-09-18T13:25:05;11.10;;;6.50;;
70825;SDS011;58446;41.490;22.098;2023-09-18T13:27:32;9.70;;;6.15;;
70825;SDS011;58446;41.490;22.098;2023-09-18T13:29:58;11.23;;;5.40;;
70825;SDS011;58446;41.490;22.098;2023-09-18T13:32:32;10.18;;;6.15;;
70825;SDS011;58446;41.490;22.098;2023-09-18T13:35:02;11.23;;;6.45;;
70825;SDS011;58446;41.490;22.098;2023-09-18T13:37:30;9.52;;;5.50;;
70825;SDS011;58446;41.490;22.098;2023-09-18T13:39:57;9.18;;;5.78;;
70825;SDS011;58446;41.490;22.098;2023-09-18T13:42:23;10.50;;;5.83;;
70825;SDS011;58446;41.490;22.098;2023-09-18T13:44:48;9.98;;;5.38;;
70825;SDS011;58446;41.490;22.098;2023-09-18T13:47:15;12.17;;;5.87;;
70825;SDS011;58446;41.490;22.098;2023-09-18T13:49:40;11.25;;;5.40;;
70825;SDS011;58446;41.490;22.098;2023-09-18T13:52:06;10.53;;;6.17;;
70825;SDS011;58446;41.490;22.098;2023-09-18T13:54:32;11.07;;;6.38;;
70825;SDS011;58446;41.490;22.098;2023-09-18T13:56:57;10.30;;;6.03;;
70825;SDS011;58446;41.490;22.098;2023-09-18T13:59:23;9.73;;;5.32;;
70825;SDS011;58446;41.490;22.098;2023-09-18T14:01:49;10.95;;;6.25;;
70825;SDS011;58446;41.490;22.098;2023-09-18T14:04:17;9.70;;;5.90;;
70825;SDS011;58446;41.490;22.098;2023-09-18T14:06:44;9.73;;;6.23;;
70825;SDS011;58446;41.490;22.098;2023-09-18T14:09:10;11.70;;;6.20;;
70825;SDS011;58446;41.490;22.098;2023-09-18T14:11:36;9.93;;;6.00;;
70825;SDS011;58446;41.490;22.098;2023-09-18T14:14:03;9.88;;;5.93;;
70825;SDS011;58446;41.490;22.098;2023-09-18T14:16:29;9.45;;;5.68;;
70825;SDS011;58446;41.490;22.098;2023-09-18T14:18:58;12.45;;;7.07;;
70825;SDS011;58446;41.490;22.098;2023-09-18T14:21:24;10.85;;;7.30;;
70825;SDS011;58446;41.490;22.098;2023-09-18T14:23:50;9.43;;;6.27;;
70825;SDS011;58446;41.490;22.098;2023-09-18T14:26:16;13.65;;;6.75;;
70825;SDS011;58446;41.490;22.098;2023-09-18T14:28:41;12.47;;;5.90;;
70825;SDS011;58446;41.490;22.098;2023-09-18T14:31:09;12.15;;;6.65;;